Time;durP1;ratioP1;P1;durP2;ratioP2;P2;SDS_P1;SDS_P2;PMS_P1;PMS_P2;Temp;Humidity;BMP_temperature;BMP_pressure;BME280_temperature;BME280_humidity;BME280_pressure;Samples;Min_cycle;Max_cycle;Signal;HPM_P1;HPM_P2
2021/08/02 00:00:41;;;;;;;3.40;3.10;;;17.00;89.40;;;;;;5043917;28;20203;-90
2021/08/02 00:03:26;;;;;;;3.70;3.30;;;17.00;89.10;;;;;;5040450;28;20182;-89
2021/08/02 00:05:54;;;;;;;3.83;3.37;;;17.00;89.60;;;;;;5043508;28;20232;-90
2021/08/02 00:08:21;;;;;;;3.33;3.03;;;17.00;88.70;;;;;;5050145;28;20219;-90
2021/08/02 00:10:51;;;;;;;4.10;3.20;;;16.90;89.00;;;;;;5035827;28;20377;-90
2021/08/02 00:13:29;;;;;;;3.30;3.00;;;16.80;89.50;;;;;;5054947;28;20254;-90
2021/08/02 00:15:57;;;;;;;3.13;2.90;;;16.90;89.50;;;;;;5053461;28;20588;-89
2021/08/02 00:18:28;;;;;;;3.37;3.07;;;16.90;88.70;;;;;;5049260;28;20218;-90
2021/08/02 00:20:56;;;;;;;3.13;2.83;;;16.90;89.40;;;;;;5054657;28;20197;-91
2021/08/02 00:23:24;;;;;;;3.17;2.87;;;17.00;88.60;;;;;;5054310;28;20697;-91
2021/08/02 00:25:50;;;;;;;3.23;2.93;;;16.80;89.00;;;;;;5018738;28;20234;-90
2021/08/02 00:28:16;;;;;;;4.07;3.27;;;16.70;89.30;;;;;;5036964;28;20644;-89
2021/08/02 00:30:42;;;;;;;3.43;3.13;;;16.70;89.50;;;;;;5037904;28;20282;-89
2021/08/02 00:33:09;;;;;;;3.40;2.90;;;16.50;90.00;;;;;;5048389;28;20307;-89
2021/08/02 00:35:41;;;;;;;3.67;3.33;;;16.60;89.80;;;;;;5051610;28;20255;-89
2021/08/02 00:38:23;;;;;;;3.43;3.13;;;16.60;89.50;;;;;;5038090;28;20164;-90
2021/08/02 00:40:49;;;;;;;3.07;2.80;;;16.70;89.30;;;;;;5037286;28;20342;-90
2021/08/02 00:43:28;;;;;;;3.70;3.00;;;16.70;88.80;;;;;;5053190;28;20702;-90
2021/08/02 00:45:55;;;;;;;3.23;2.93;;;16.70;88.80;;;;;;5054339;28;20256;-90
2021/08/02 00:48:27;;;;;;;3.60;2.93;;;16.80;87.90;;;;;;5053599;28;20216;-90
2021/08/02 00:50:53;;;;;;;4.73;3.23;;;16.70;88.10;;;;;;5040830;28;20703;-89
2021/08/02 00:53:24;;;;;;;3.43;2.93;;;16.70;88.40;;;;;;5035517;28;20212;-89
2021/08/02 00:56:00;;;;;;;3.87;2.83;;;16.80;87.60;;;;;;5036180;28;20777;-90
2021/08/02 00:58:27;;;;;;;3.63;3.40;;;16.80;88.00;;;;;;5054488;28;20208;-90
2021/08/02 01:00:56;;;;;;;3.67;3.07;;;16.70;88.30;;;;;;5044344;28;20179;-90
2021/08/02 01:03:22;;;;;;;4.43;3.20;;;16.70;88.50;;;;;;5043359;28;20203;-90
2021/08/02 01:05:51;;;;;;;3.23;2.80;;;16.70;88.00;;;;;;5024747;28;20247;-89
2021/08/02 01:08:27;;;;;;;8.17;3.03;;;16.60;88.30;;;;;;5042001;28;20315;-90
2021/08/02 01:10:56;;;;;;;4.20;3.20;;;16.60;88.00;;;;;;5050358;28;20198;-90
2021/08/02 01:13:24;;;;;;;3.10;2.80;;;16.60;88.30;;;;;;5052215;28;20211;-90
2021/08/02 01:15:54;;;;;;;3.63;3.33;;;16.50;88.00;;;;;;5054699;28;20192;-90
2021/08/02 01:18:21;;;;;;;5.53;2.90;;;16.40;88.40;;;;;;5040658;28;20200;-90
2021/08/02 01:20:49;;;;;;;3.63;3.03;;;16.30;88.70;;;;;;5047423;28;20712;-90
2021/08/02 01:23:16;;;;;;;4.47;2.90;;;16.40;87.80;;;;;;5041545;28;20205;-90
2021/08/02 01:25:41;;;;;;;2.83;2.63;;;16.40;87.00;;;;;;5053937;28;20747;-89
2021/08/02 01:28:13;;;;;;;5.23;3.30;;;16.30;88.00;;;;;;5043231;28;20205;-90
2021/08/02 01:30:40;;;;;;;4.87;2.97;;;16.30;87.90;;;;;;5044523;28;20819;-90
2021/08/02 01:33:06;;;;;;;4.63;3.20;;;16.30;87.10;;;;;;5038556;28;20222;-90
2021/08/02 01:35:32;;;;;;;3.30;2.87;;;16.40;86.80;;;;;;5035923;28;20179;-90
2021/08/02 01:37:58;;;;;;;3.60;2.43;;;16.40;87.00;;;;;;5051112;28;20229;-90
2021/08/02 01:40:23;;;;;;;5.20;2.63;;;16.30;87.10;;;;;;5053222;28;20207;-90
2021/08/02 01:42:49;;;;;;;2.90;2.60;;;16.30;87.00;;;;;;5048911;28;20279;-90
2021/08/02 01:45:15;;;;;;;3.50;2.70;;;16.20;87.00;;;;;;5046300;28;20203;-90
2021/08/02 01:48:04;;;;;;;4.57;3.00;;;16.20;87.30;;;;;;5040765;28;20280;-90
2021/08/02 01:50:51;;;;;;;3.77;3.13;;;16.20;87.90;;;;;;5036806;28;20338;-89
2021/08/02 01:53:36;;;;;;;3.90;2.90;;;16.20;88.10;;;;;;5054040;28;20243;-89
2021/08/02 01:56:13;;;;;;;2.83;2.40;;;16.20;87.90;;;;;;5043105;28;20193;-89
2021/08/02 01:58:56;;;;;;;6.57;2.90;;;16.20;88.40;;;;;;5051067;28;20257;-90
2021/08/02 02:01:24;;;;;;;3.10;2.80;;;16.20;88.60;;;;;;5037482;28;20227;-90
2021/08/02 02:03:51;;;;;;;3.13;2.83;;;16.20;88.80;;;;;;5054579;28;20256;-89
2021/08/02 02:06:20;;;;;;;3.37;3.10;;;16.30;88.50;;;;;;5028749;28;20283;-90
2021/08/02 02:09:00;;;;;;;4.03;3.00;;;16.30;88.70;;;;;;5041407;28;20270;-90
2021/08/02 02:11:27;;;;;;;4.20;3.00;;;16.40;87.90;;;;;;5038558;28;20180;-90
2021/08/02 02:13:58;;;;;;;3.13;2.90;;;16.50;87.80;;;;;;5043302;28;20315;-90
2021/08/02 02:16:25;;;;;;;4.00;3.10;;;16.50;87.60;;;;;;5027263;28;20194;-90
2021/08/02 02:18:54;;;;;;;3.00;2.80;;;16.40;87.90;;;;;;5053754;28;20205;-90
2021/08/02 02:21:24;;;;;;;3.30;3.00;;;16.50;88.30;;;;;;5035479;28;20184;-89
2021/08/02 02:23:51;;;;;;;4.77;3.00;;;16.70;87.70;;;;;;5052111;28;20191;-90
2021/08/02 02:26:18;;;;;;;3.60;3.30;;;16.70;87.90;;;;;;5053261;28;20191;-90
2021/08/02 02:28:44;;;;;;;3.40;3.10;;;16.60;88.00;;;;;;5038068;28;20207;-90
2021/08/02 02:31:11;;;;;;;4.80;2.73;;;16.60;88.10;;;;;;5043495;28;20208;-89
2021/08/02 02:33:37;;;;;;;3.20;2.90;;;16.60;87.90;;;;;;5042992;28;20292;-89
2021/08/02 02:36:05;;;;;;;2.97;2.77;;;16.70;88.20;;;;;;5035612;28;20178;-91
2021/08/02 02:38:32;;;;;;;4.83;3.30;;;16.70;87.60;;;;;;5050676;28;20216;-90
2021/08/02 02:40:58;;;;;;;4.13;3.53;;;16.60;88.40;;;;;;5033231;28;20678;-90
2021/08/02 02:43:25;;;;;;;4.57;3.43;;;16.70;88.40;;;;;;5053418;28;20192;-90
2021/08/02 02:45:51;;;;;;;3.50;3.20;;;16.70;88.10;;;;;;5026269;28;20619;-90
2021/08/02 02:48:18;;;;;;;5.97;3.47;;;16.70;88.10;;;;;;5042264;28;20216;-90
2021/08/02 02:50:47;;;;;;;3.40;3.10;;;16.70;88.00;;;;;;5022789;28;20197;-89
2021/08/02 02:53:14;;;;;;;4.83;3.30;;;16.60;88.50;;;;;;5034924;28;20362;-89
2021/08/02 02:55:42;;;;;;;5.03;3.30;;;16.60;88.80;;;;;;5053733;28;20205;-90
2021/08/02 02:58:08;;;;;;;3.33;3.03;;;16.50;89.50;;;;;;5051901;28;20202;-90
2021/08/02 03:00:34;;;;;;;4.70;3.40;;;16.40;89.90;;;;;;5052351;28;20195;-90
2021/08/02 03:03:03;;;;;;;6.00;3.50;;;16.50;89.50;;;;;;5039855;28;20200;-90
2021/08/02 03:05:30;;;;;;;3.60;3.30;;;16.50;89.90;;;;;;5044118;28;20217;-90
2021/08/02 03:07:59;;;;;;;3.90;3.50;;;16.50;89.50;;;;;;5018670;28;20268;-90
2021/08/02 03:10:26;;;;;;;3.80;3.40;;;16.40;89.80;;;;;;5056066;28;20268;-90
2021/08/02 03:12:53;;;;;;;4.00;3.60;;;16.30;90.30;;;;;;5058115;28;20217;-90
2021/08/02 03:15:20;;;;;;;5.73;3.70;;;16.20;91.20;;;;;;5057437;28;20281;-90
2021/08/02 03:17:47;;;;;;;3.60;3.30;;;16.20;91.10;;;;;;5060606;28;20187;-90
2021/08/02 03:20:16;;;;;;;3.93;3.50;;;16.20;90.40;;;;;;5059462;28;20196;-90
2021/08/02 03:22:58;;;;;;;3.53;3.23;;;16.30;90.50;;;;;;5059398;28;20193;-90
2021/08/02 03:25:38;;;;;;;3.40;3.10;;;16.40;89.50;;;;;;5059706;28;20201;-91
2021/08/02 03:28:31;;;;;;;4.67;3.27;;;16.50;89.20;;;;;;5040640;28;20191;-88
2021/08/02 03:31:00;;;;;;;5.07;3.43;;;16.60;88.60;;;;;;5040890;28;20188;-91
2021/08/02 03:33:32;;;;;;;4.90;3.30;;;16.60;88.30;;;;;;5041966;28;20232;-90
2021/08/02 03:36:03;;;;;;;3.93;3.07;;;16.60;88.30;;;;;;5048147;28;20673;-90
2021/08/02 03:38:30;;;;;;;3.37;3.00;;;16.70;87.70;;;;;;5051750;28;20267;-90
2021/08/02 03:40:57;;;;;;;3.40;3.00;;;16.90;86.90;;;;;;5029494;28;20182;-90
2021/08/02 03:43:24;;;;;;;3.40;3.10;;;17.00;86.70;;;;;;5058978;28;20187;-90
2021/08/02 03:45:52;;;;;;;3.42;3.22;;;17.10;86.20;;;;;;5057581;28;20722;-90
2021/08/02 03:48:20;;;;;;;4.00;3.70;;;17.10;86.40;;;;;;5057826;28;20218;-90
2021/08/02 03:50:46;;;;;;;6.80;3.57;;;16.90;87.00;;;;;;5061550;28;20190;-90
2021/08/02 03:53:12;;;;;;;4.60;3.53;;;16.80;87.90;;;;;;5058744;28;20713;-88
2021/08/02 03:55:38;;;;;;;3.60;3.30;;;16.70;88.30;;;;;;5051664;28;20192;-88
2021/08/02 03:58:06;;;;;;;4.07;3.77;;;16.80;87.70;;;;;;5059481;28;20209;-88
2021/08/02 04:00:32;;;;;;;3.83;3.53;;;16.80;87.70;;;;;;5053019;28;20187;-88
2021/08/02 04:02:58;;;;;;;4.67;3.20;;;16.80;87.40;;;;;;5055495;28;20196;-90
2021/08/02 04:05:24;;;;;;;5.00;3.20;;;16.80;87.30;;;;;;5018491;28;20197;-88
2021/08/02 04:07:50;;;;;;;3.93;3.50;;;16.70;87.50;;;;;;5058425;28;20303;-88
2021/08/02 04:10:16;;;;;;;4.00;3.40;;;16.60;87.70;;;;;;5032221;28;20632;-89
2021/08/02 04:12:41;;;;;;;3.90;3.47;;;16.70;87.70;;;;;;5046511;28;20213;-89
2021/08/02 04:15:11;;;;;;;5.20;3.73;;;16.80;87.30;;;;;;5056303;28;20240;-89
2021/08/02 04:17:37;;;;;;;4.93;3.50;;;16.90;87.40;;;;;;5029843;28;20229;-88
2021/08/02 04:20:05;;;;;;;5.43;3.47;;;17.00;86.70;;;;;;5047754;28;20215;-90
2021/08/02 04:22:31;;;;;;;4.10;3.20;;;17.20;85.60;;;;;;5039248;28;20552;-90
2021/08/02 04:24:57;;;;;;;4.93;3.40;;;17.30;85.40;;;;;;5035830;28;20204;-90
2021/08/02 04:27:22;;;;;;;4.10;3.70;;;17.40;85.00;;;;;;5046660;28;20192;-90
2021/08/02 04:29:48;;;;;;;6.65;6.10;;;17.40;84.60;;;;;;5020924;28;20230;-90
2021/08/02 04:32:14;;;;;;;4.65;3.00;;;17.50;84.90;;;;;;5054033;28;20869;-91
2021/08/02 04:34:39;;;;;;;6.38;3.80;;;17.50;84.30;;;;;;5053787;28;20190;-90
2021/08/02 04:37:05;;;;;;;4.13;3.60;;;17.50;84.70;;;;;;5053768;28;20214;-90
2021/08/02 04:39:31;;;;;;;3.15;2.85;;;17.50;84.10;;;;;;5054138;28;20211;-89
2021/08/02 04:41:57;;;;;;;4.20;3.50;;;17.50;84.30;;;;;;5032381;28;20203;-89
2021/08/02 04:44:22;;;;;;;4.10;3.47;;;17.50;84.60;;;;;;5044417;28;20207;-90
2021/08/02 04:46:48;;;;;;;6.20;3.58;;;17.30;85.50;;;;;;5052961;28;20191;-90
2021/08/02 04:49:14;;;;;;;4.63;3.40;;;17.20;86.40;;;;;;5055509;28;20222;-89
2021/08/02 04:51:40;;;;;;;3.90;3.63;;;17.20;86.50;;;;;;5053336;28;20206;-89
2021/08/02 04:54:05;;;;;;;5.07;3.75;;;17.30;86.20;;;;;;5038620;28;20559;-90
2021/08/02 04:56:31;;;;;;;4.47;3.65;;;17.20;85.80;;;;;;5052679;28;20713;-90
2021/08/02 04:58:57;;;;;;;4.85;3.60;;;17.00;86.80;;;;;;5032319;28;20654;-88
2021/08/02 05:01:23;;;;;;;5.87;3.90;;;17.00;86.60;;;;;;5029942;28;20191;-88
2021/08/02 05:03:48;;;;;;;6.17;3.60;;;16.80;87.90;;;;;;5048592;28;20187;-88
2021/08/02 05:06:14;;;;;;;3.70;3.37;;;16.80;88.10;;;;;;5043613;28;20197;-88
2021/08/02 05:08:40;;;;;;;4.00;3.60;;;16.80;88.20;;;;;;5045084;28;20221;-88
2021/08/02 05:11:06;;;;;;;4.53;3.40;;;16.90;87.80;;;;;;5030405;28;20194;-88
2021/08/02 05:13:31;;;;;;;3.70;3.40;;;16.90;88.00;;;;;;5052154;28;20214;-88
2021/08/02 05:15:57;;;;;;;3.40;3.10;;;17.10;87.20;;;;;;5054124;28;20203;-88
2021/08/02 05:18:23;;;;;;;4.20;3.13;;;17.10;87.20;;;;;;5054216;28;20291;-88
2021/08/02 05:20:48;;;;;;;4.23;3.83;;;17.10;86.50;;;;;;5054243;28;20198;-88
2021/08/02 05:23:14;;;;;;;3.38;3.17;;;17.10;87.00;;;;;;5050255;28;20249;-89
2021/08/02 05:25:40;;;;;;;6.65;3.50;;;17.20;86.30;;;;;;5036345;28;20206;-88
2021/08/02 05:28:06;;;;;;;3.87;3.57;;;17.20;86.20;;;;;;5032780;28;20275;-88
2021/08/02 05:30:32;;;;;;;4.70;3.30;;;17.10;86.50;;;;;;5045379;28;20195;-88
2021/08/02 05:32:57;;;;;;;4.70;3.60;;;17.00;87.20;;;;;;5051012;28;20219;-88
2021/08/02 05:35:23;;;;;;;3.70;3.40;;;16.90;88.10;;;;;;5038451;28;20192;-88
2021/08/02 05:37:49;;;;;;;4.00;3.43;;;16.90;88.60;;;;;;5042224;28;20181;-88
2021/08/02 05:40:15;;;;;;;5.93;4.10;;;16.80;88.20;;;;;;5050023;28;20267;-90
2021/08/02 05:42:41;;;;;;;5.43;3.80;;;16.70;89.40;;;;;;5036538;28;20197;-88
2021/08/02 05:45:08;;;;;;;5.10;3.83;;;16.70;89.30;;;;;;5049905;28;20210;-89
2021/08/02 05:47:34;;;;;;;4.57;3.43;;;16.80;88.20;;;;;;5052007;28;20694;-88
2021/08/02 05:50:00;;;;;;;5.63;3.63;;;16.90;88.40;;;;;;5019500;28;20251;-88
2021/08/02 05:52:26;;;;;;;4.37;3.43;;;17.00;87.70;;;;;;5040913;28;20216;-87
2021/08/02 05:54:51;;;;;;;4.23;3.90;;;17.00;87.60;;;;;;5049355;28;20739;-88
2021/08/02 05:57:21;;;;;;;3.80;3.50;;;16.90;88.30;;;;;;5042807;28;20188;-88
2021/08/02 05:59:48;;;;;;;5.77;3.50;;;17.00;88.30;;;;;;5054271;28;20859;-88
2021/08/02 06:02:14;;;;;;;4.53;3.23;;;16.90;88.00;;;;;;5044680;28;20204;-87
2021/08/02 06:04:40;;;;;;;5.07;3.37;;;17.00;88.30;;;;;;5043633;28;20248;-87
2021/08/02 06:07:06;;;;;;;4.37;3.63;;;16.90;89.10;;;;;;5037936;28;20243;-87
2021/08/02 06:09:32;;;;;;;4.20;3.30;;;17.00;88.50;;;;;;5036168;28;20216;-87
2021/08/02 06:11:58;;;;;;;4.27;3.60;;;17.00;88.70;;;;;;5053420;28;20554;-87
2021/08/02 06:14:23;;;;;;;3.50;3.20;;;17.20;87.60;;;;;;5039182;28;20248;-87
2021/08/02 06:16:50;;;;;;;5.53;3.60;;;17.30;86.50;;;;;;5054569;28;20192;-87
2021/08/02 06:19:16;;;;;;;5.10;3.67;;;17.50;85.60;;;;;;5058113;28;20203;-88
2021/08/02 06:21:42;;;;;;;4.10;3.40;;;17.20;87.00;;;;;;5036229;28;20215;-87
2021/08/02 06:24:08;;;;;;;4.73;3.47;;;17.20;87.50;;;;;;5056320;28;20227;-86
2021/08/02 06:26:33;;;;;;;4.10;3.70;;;17.20;88.20;;;;;;5062266;28;20214;-88
2021/08/02 06:28:59;;;;;;;4.80;3.53;;;17.30;86.70;;;;;;5061484;28;20210;-89
2021/08/02 06:31:25;;;;;;;3.80;3.50;;;17.40;86.60;;;;;;5043500;28;20310;-88
2021/08/02 06:33:51;;;;;;;5.87;3.63;;;17.40;85.60;;;;;;5042865;28;20215;-89
2021/08/02 06:36:18;;;;;;;5.47;3.90;;;17.40;86.60;;;;;;5047183;28;20202;-89
2021/08/02 06:38:44;;;;;;;4.10;3.70;;;17.50;86.80;;;;;;5072474;28;20201;-88
2021/08/02 06:41:10;;;;;;;3.50;3.20;;;17.40;85.80;;;;;;5067033;28;20192;-89
2021/08/02 06:43:36;;;;;;;5.83;3.53;;;17.40;86.20;;;;;;5058368;28;20196;-88
2021/08/02 06:46:01;;;;;;;3.70;3.00;;;17.40;87.90;;;;;;5048211;28;20691;-88
2021/08/02 06:48:27;;;;;;;3.80;3.50;;;17.30;86.30;;;;;;5052955;28;20290;-88
2021/08/02 06:50:53;;;;;;;5.33;3.67;;;17.40;87.10;;;;;;5053981;28;20201;-88
2021/08/02 06:53:19;;;;;;;3.70;3.40;;;17.40;86.60;;;;;;5055053;28;20239;-88
2021/08/02 06:55:47;;;;;;;3.83;3.40;;;17.30;86.10;;;;;;5046184;28;20183;-88
2021/08/02 06:58:13;;;;;;;5.17;3.30;;;17.50;85.00;;;;;;5035788;28;20207;-87
2021/08/02 07:00:40;;;;;;;4.90;3.27;;;17.50;84.40;;;;;;5047190;28;20260;-88
2021/08/02 07:03:05;;;;;;;5.10;3.37;;;17.60;85.10;;;;;;5054321;28;20245;-88
2021/08/02 07:05:32;;;;;;;3.93;3.47;;;17.80;83.40;;;;;;5029900;28;20201;-88
2021/08/02 07:07:57;;;;;;;4.80;3.30;;;17.90;84.00;;;;;;5043932;28;20197;-88
2021/08/02 07:10:23;;;;;;;5.23;3.47;;;17.90;84.50;;;;;;5042525;28;20217;-88
2021/08/02 07:12:49;;;;;;;4.43;3.20;;;18.00;83.60;;;;;;5052364;28;20212;-88
2021/08/02 07:15:14;;;;;;;5.37;3.50;;;18.00;82.90;;;;;;5051923;28;20197;-88
2021/08/02 07:17:40;;;;;;;3.97;3.57;;;18.00;84.40;;;;;;5054378;28;20250;-90
2021/08/02 07:20:07;;;;;;;3.45;3.22;;;18.10;83.30;;;;;;5049660;28;20280;-90
2021/08/02 07:22:33;;;;;;;4.97;3.67;;;18.20;83.70;;;;;;5052465;28;20203;-90
2021/08/02 07:24:58;;;;;;;4.20;3.80;;;18.20;82.20;;;;;;5033958;28;20203;-89
2021/08/02 07:27:24;;;;;;;3.93;3.47;;;18.20;79.20;;;;;;5053569;28;20193;-89
2021/08/02 07:29:53;;;;;;;4.93;4.00;;;18.30;78.70;;;;;;5033578;28;20213;-89
2021/08/02 07:32:19;;;;;;;4.13;3.83;;;18.20;79.70;;;;;;5054282;28;20247;-91
2021/08/02 07:34:44;;;;;;;4.97;3.50;;;18.10;81.50;;;;;;5049963;28;20225;-91
2021/08/02 07:37:10;;;;;;;5.13;3.70;;;18.10;82.00;;;;;;5056358;28;20773;-90
2021/08/02 07:39:36;;;;;;;3.90;3.60;;;18.00;81.10;;;;;;5031237;28;20643;-88
2021/08/02 07:42:02;;;;;;;4.20;3.80;;;18.00;81.10;;;;;;5021750;28;20650;-89
2021/08/02 07:44:28;;;;;;;4.43;3.53;;;18.30;79.20;;;;;;5049270;28;20193;-90
2021/08/02 07:46:53;;;;;;;4.13;3.80;;;18.20;80.20;;;;;;5038392;28;20201;-90
2021/08/02 07:49:19;;;;;;;4.70;3.97;;;18.30;80.10;;;;;;5056420;28;20409;-89
2021/08/02 07:51:45;;;;;;;7.13;4.00;;;18.30;78.90;;;;;;5044456;28;20265;-88
2021/08/02 07:54:11;;;;;;;4.27;3.60;;;18.40;79.40;;;;;;5049831;28;20208;-88
2021/08/02 07:56:38;;;;;;;3.97;3.67;;;18.30;79.20;;;;;;5037904;28;20232;-87
2021/08/02 07:59:04;;;;;;;5.47;3.97;;;18.30;79.10;;;;;;5055459;28;20229;-87
2021/08/02 08:01:30;;;;;;;4.83;3.43;;;18.50;78.60;;;;;;5046783;28;20217;-89
2021/08/02 08:03:56;;;;;;;4.20;3.80;;;18.50;79.20;;;;;;5027123;28;20208;-89
2021/08/02 08:06:21;;;;;;;6.87;3.80;;;18.60;77.40;;;;;;5052491;28;20205;-88
2021/08/02 08:08:47;;;;;;;3.97;3.57;;;18.60;76.80;;;;;;5045193;28;20794;-88
2021/08/02 08:11:13;;;;;;;3.93;3.60;;;18.80;76.40;;;;;;5046424;28;20217;-87
2021/08/02 08:13:39;;;;;;;4.73;3.50;;;18.70;76.70;;;;;;5057147;28;20685;-88
2021/08/02 08:16:06;;;;;;;4.47;3.90;;;18.60;77.40;;;;;;5029434;28;20202;-88
2021/08/02 08:18:32;;;;;;;4.23;3.83;;;18.60;78.00;;;;;;5053029;28;20217;-88
2021/08/02 08:20:59;;;;;;;3.90;3.30;;;18.70;78.80;;;;;;5037086;28;20187;-88
2021/08/02 08:23:31;;;;;;;4.17;3.77;;;18.90;76.80;;;;;;5038904;28;20200;-88
2021/08/02 08:25:57;;;;;;;4.18;3.80;;;19.00;77.60;;;;;;5047037;28;20199;-88
2021/08/02 08:28:23;;;;;;;4.10;3.80;;;19.20;77.00;;;;;;5047307;28;20226;-88
2021/08/02 08:30:49;;;;;;;3.92;3.53;;;19.50;76.40;;;;;;5052804;28;20195;-88
2021/08/02 08:33:14;;;;;;;4.30;3.90;;;19.80;75.90;;;;;;5051417;28;20223;-88
2021/08/02 08:35:40;;;;;;;3.88;3.50;;;20.00;74.60;;;;;;5053309;28;20184;-88
2021/08/02 08:38:08;;;;;;;4.63;4.03;;;20.00;72.10;;;;;;5052059;28;20709;-88
2021/08/02 08:40:35;;;;;;;4.43;3.83;;;19.60;75.20;;;;;;5044962;28;20193;-88
2021/08/02 08:43:06;;;;;;;4.63;4.22;;;19.70;75.30;;;;;;5051028;28;20219;-88
2021/08/02 08:45:32;;;;;;;4.53;4.13;;;19.90;74.70;;;;;;5031272;28;20684;-88
2021/08/02 08:47:58;;;;;;;5.30;3.80;;;20.10;74.70;;;;;;5036496;28;20315;-88
2021/08/02 08:50:25;;;;;;;4.45;3.60;;;20.20;73.00;;;;;;5046345;28;20276;-88
2021/08/02 08:52:56;;;;;;;6.82;4.15;;;20.30;72.60;;;;;;5032570;28;20214;-88
2021/08/02 08:55:22;;;;;;;4.10;3.70;;;20.40;73.70;;;;;;5054731;28;20180;-88
2021/08/02 08:57:47;;;;;;;4.85;3.97;;;20.60;73.60;;;;;;5054328;28;20187;-88
2021/08/02 09:00:24;;;;;;;5.18;4.30;;;20.30;73.50;;;;;;5050721;28;20216;-88
2021/08/02 09:02:51;;;;;;;4.40;4.00;;;20.30;73.10;;;;;;5058983;28;20201;-88
2021/08/02 09:05:17;;;;;;;4.63;4.05;;;20.40;73.20;;;;;;5064698;28;20183;-87
2021/08/02 09:07:44;;;;;;;4.60;4.15;;;20.40;71.70;;;;;;5067259;28;20248;-88
2021/08/02 09:10:15;;;;;;;4.00;3.70;;;20.30;73.90;;;;;;5053701;28;20238;-88
2021/08/02 09:12:51;;;;;;;5.20;4.40;;;20.10;74.10;;;;;;5038770;28;20222;-88
2021/08/02 09:15:18;;;;;;;6.35;4.32;;;20.10;74.10;;;;;;5056545;28;20212;-88
2021/08/02 09:17:43;;;;;;;5.15;4.30;;;20.00;75.30;;;;;;5046373;28;20645;-88
2021/08/02 09:20:24;;;;;;;4.80;4.40;;;20.00;74.90;;;;;;5044765;28;20219;-88
2021/08/02 09:22:50;;;;;;;4.85;4.25;;;19.80;75.00;;;;;;5048238;28;20377;-88
2021/08/02 09:25:20;;;;;;;4.85;4.45;;;20.10;73.70;;;;;;5039171;28;20203;-88
2021/08/02 09:27:47;;;;;;;4.85;4.43;;;20.00;73.70;;;;;;5048048;28;20189;-88
2021/08/02 09:30:21;;;;;;;5.65;4.50;;;20.00;75.10;;;;;;5048338;28;20274;-88
2021/08/02 09:33:03;;;;;;;5.60;5.10;;;20.20;73.50;;;;;;5036761;28;20219;-89
2021/08/02 09:35:33;;;;;;;6.38;4.85;;;20.50;73.20;;;;;;5050573;28;20198;-90
2021/08/02 09:38:04;;;;;;;5.18;4.68;;;20.20;75.30;;;;;;5047758;28;20188;-88
2021/08/02 09:40:44;;;;;;;5.15;4.65;;;20.40;74.40;;;;;;5051532;28;20213;-87
2021/08/02 09:43:21;;;;;;;5.22;4.72;;;20.30;72.80;;;;;;5051518;28;20283;-89
2021/08/02 09:45:48;;;;;;;6.00;4.40;;;20.50;72.60;;;;;;5040193;28;20180;-88
2021/08/02 09:48:15;;;;;;;6.13;4.85;;;20.60;72.60;;;;;;5051025;28;20184;-89
2021/08/02 09:50:43;;;;;;;6.45;4.85;;;20.80;72.40;;;;;;5047754;28;20188;-88
2021/08/02 09:53:15;;;;;;;5.05;4.57;;;20.70;70.50;;;;;;5050646;28;20235;-88
2021/08/02 09:55:43;;;;;;;5.13;4.63;;;20.80;71.80;;;;;;5047144;28;20181;-89
2021/08/02 09:58:11;;;;;;;5.38;4.63;;;20.80;71.20;;;;;;5044588;28;20201;-88
2021/08/02 10:00:38;;;;;;;5.88;4.80;;;20.90;71.00;;;;;;5050407;28;20192;-88
2021/08/02 10:03:05;;;;;;;4.57;4.00;;;21.20;68.90;;;;;;5046777;28;20191;-88
2021/08/02 10:05:31;;;;;;;4.60;4.07;;;21.40;68.20;;;;;;5054889;28;20211;-88
2021/08/02 10:07:58;;;;;;;4.68;4.28;;;21.30;69.30;;;;;;5055810;28;20200;-88
2021/08/02 10:10:24;;;;;;;5.43;4.25;;;21.10;69.60;;;;;;5049553;28;20199;-89
2021/08/02 10:12:50;;;;;;;4.75;3.95;;;21.30;67.40;;;;;;5038272;28;20630;-89
2021/08/02 10:15:19;;;;;;;4.72;4.32;;;21.70;66.40;;;;;;5052044;28;20194;-88
2021/08/02 10:17:48;;;;;;;4.10;3.80;;;21.60;66.70;;;;;;5054305;28;20207;-89
2021/08/02 10:20:25;;;;;;;4.80;4.15;;;21.90;66.40;;;;;;5042697;28;20207;-89
2021/08/02 10:22:52;;;;;;;3.65;3.35;;;22.20;65.90;;;;;;5052787;28;20221;-89
2021/08/02 10:25:29;;;;;;;3.35;3.05;;;22.40;64.50;;;;;;5050087;28;20672;-89
2021/08/02 10:28:07;;;;;;;3.55;3.25;;;22.70;62.40;;;;;;5055720;28;20559;-89
2021/08/02 10:30:33;;;;;;;3.58;3.20;;;22.60;61.30;;;;;;5053899;28;20251;-89
2021/08/02 10:32:59;;;;;;;3.65;3.00;;;22.50;63.10;;;;;;5046907;28;20265;-88
2021/08/02 10:35:36;;;;;;;3.63;3.33;;;22.50;62.60;;;;;;5044174;28;20193;-88
2021/08/02 10:38:07;;;;;;;5.60;3.90;;;22.20;62.90;;;;;;5039093;28;20195;-89
2021/08/02 10:40:49;;;;;;;4.22;3.40;;;22.20;64.10;;;;;;5040695;28;20206;-90
2021/08/02 10:43:34;;;;;;;3.42;3.22;;;21.90;64.50;;;;;;5053553;28;20279;-89
2021/08/02 10:46:14;;;;;;;4.03;3.25;;;21.50;65.60;;;;;;5059565;28;20192;-89
2021/08/02 10:48:40;;;;;;;3.42;3.13;;;21.60;65.10;;;;;;5048730;28;20230;-89
2021/08/02 10:51:12;;;;;;;5.18;3.40;;;22.20;63.30;;;;;;5023686;28;20202;-89
2021/08/02 10:53:37;;;;;;;3.35;3.05;;;22.70;63.80;;;;;;5053245;28;20211;-89
2021/08/02 10:56:03;;;;;;;3.20;2.85;;;22.50;61.80;;;;;;5049388;28;20212;-89
2021/08/02 10:58:41;;;;;;;3.10;2.88;;;22.40;61.70;;;;;;5063706;28;20671;-89
2021/08/02 11:01:12;;;;;;;3.30;2.60;;;22.70;62.80;;;;;;5052150;28;20316;-89
2021/08/02 11:03:40;;;;;;;3.55;3.05;;;23.00;57.70;;;;;;5028966;28;20198;-89
2021/08/02 11:06:13;;;;;;;3.15;2.85;;;23.10;58.60;;;;;;5017266;28;20204;-87
2021/08/02 11:08:44;;;;;;;4.13;3.00;;;23.10;58.00;;;;;;5023445;28;20729;-87
2021/08/02 11:11:17;;;;;;;3.83;3.47;;;23.00;59.70;;;;;;5044723;28;20192;-87
2021/08/02 11:13:42;;;;;;;3.60;3.00;;;22.90;61.60;;;;;;5028701;28;20241;-89
2021/08/02 11:16:09;;;;;;;3.95;3.10;;;22.80;62.30;;;;;;5045709;28;20196;-89
2021/08/02 11:18:36;;;;;;;3.60;3.28;;;22.30;64.10;;;;;;5048689;28;20217;-88
2021/08/02 11:21:01;;;;;;;3.95;3.40;;;21.80;68.20;;;;;;5039718;28;20197;-88
2021/08/02 11:23:33;;;;;;;3.50;3.20;;;21.40;70.90;;;;;;5044062;28;20279;-89
2021/08/02 11:26:12;;;;;;;2.70;2.50;;;21.00;70.90;;;;;;5068811;28;20188;-89
2021/08/02 11:28:45;;;;;;;5.72;2.70;;;20.80;67.90;;;;;;5062733;28;20200;-88
2021/08/02 11:31:13;;;;;;;3.15;2.45;;;21.00;68.10;;;;;;5050847;28;20192;-88
2021/08/02 11:33:41;;;;;;;2.95;2.65;;;20.80;67.40;;;;;;5027149;28;20218;-88
2021/08/02 11:36:22;;;;;;;2.22;2.03;;;20.60;69.50;;;;;;5044313;28;20181;-88
2021/08/02 11:38:49;;;;;;;2.20;2.00;;;20.40;66.30;;;;;;5051855;28;20212;-88
2021/08/02 11:41:26;;;;;;;2.10;1.90;;;20.30;64.80;;;;;;5049771;28;20183;-88
2021/08/02 11:43:52;;;;;;;2.75;2.15;;;20.30;64.60;;;;;;5037995;28;20196;-88
2021/08/02 11:46:18;;;;;;;3.17;2.90;;;20.60;67.30;;;;;;5049341;28;20200;-88
2021/08/02 11:48:45;;;;;;;4.25;2.92;;;20.90;67.90;;;;;;5031838;28;20238;-87
2021/08/02 11:51:16;;;;;;;3.47;3.10;;;21.30;68.00;;;;;;5054194;28;20281;-88
2021/08/02 11:53:42;;;;;;;3.67;3.38;;;21.40;69.00;;;;;;5044453;28;20291;-87
2021/08/02 11:56:08;;;;;;;5.22;3.47;;;21.60;67.20;;;;;;5051129;28;20273;-87
2021/08/02 11:58:41;;;;;;;4.00;3.15;;;21.90;70.50;;;;;;5048867;28;20272;-86
2021/08/02 12:01:07;;;;;;;3.70;2.65;;;22.30;68.90;;;;;;5010629;28;20194;-87
2021/08/02 12:03:33;;;;;;;2.90;2.70;;;22.90;62.70;;;;;;5044132;28;20206;-86
2021/08/02 12:06:07;;;;;;;2.78;2.58;;;23.10;58.90;;;;;;4984554;28;1197300;-87
2021/08/02 12:08:34;;;;;;;2.50;2.30;;;23.10;58.10;;;;;;5049113;28;20207;-88
2021/08/02 12:11:05;;;;;;;2.55;2.35;;;23.40;60.30;;;;;;5031468;28;20180;-87
2021/08/02 12:13:43;;;;;;;3.80;2.28;;;23.50;54.80;;;;;;5050964;28;20246;-86
2021/08/02 12:16:11;;;;;;;4.05;2.20;;;23.00;55.80;;;;;;5053620;28;20233;-87
2021/08/02 12:18:37;;;;;;;2.80;2.60;;;23.10;55.70;;;;;;5046965;28;20232;-88
2021/08/02 12:21:24;;;;;;;3.55;2.80;;;23.40;56.60;;;;;;5026497;28;20196;-87
2021/08/02 12:24:00;;;;;;;2.70;2.17;;;23.40;57.70;;;;;;5050418;28;20199;-86
2021/08/02 12:26:26;;;;;;;3.13;2.67;;;24.00;54.50;;;;;;5051595;28;20193;-87
2021/08/02 12:28:52;;;;;;;3.10;2.80;;;24.00;56.80;;;;;;5046160;28;20715;-87
2021/08/02 12:31:23;;;;;;;3.20;2.67;;;24.50;55.30;;;;;;5052136;28;20219;-87
2021/08/02 12:33:51;;;;;;;3.40;3.10;;;24.70;54.50;;;;;;5050027;28;20272;-87
2021/08/02 12:36:18;;;;;;;2.78;2.58;;;24.80;55.10;;;;;;5047356;28;20202;-86
2021/08/02 12:38:52;;;;;;;3.17;2.90;;;25.00;54.50;;;;;;5050799;28;20208;-87
2021/08/02 12:41:20;;;;;;;3.05;2.78;;;24.90;55.20;;;;;;5046344;28;20188;-88
2021/08/02 12:43:46;;;;;;;3.03;2.75;;;24.90;56.80;;;;;;5041729;28;20184;-87
2021/08/02 12:46:13;;;;;;;5.53;3.10;;;25.30;53.80;;;;;;5025979;28;20247;-88
2021/08/02 12:48:38;;;;;;;4.68;2.95;;;25.10;53.90;;;;;;5043911;28;20220;-89
2021/08/02 12:51:05;;;;;;;3.60;3.30;;;25.10;56.00;;;;;;5030060;28;20584;-91
2021/08/02 12:53:31;;;;;;;5.25;3.50;;;25.40;53.90;;;;;;5053213;28;20318;-89